ADDS METAR Data INFO
IDs: Format: Raw Decoded Include TAF

Data at: 1908 UTC 23 Apr 2018

KBRL 231853Z AUTO 03018G21KT 10SM CLR 22/01 A3005 RMK AO2 SLP175 T02220006
KBRL 231753Z AUTO 02015KT 10SM CLR 21/00 A3007 RMK AO2 SLP182 T02110000 10211 20083 58015
KBRL 231653Z AUTO 03015KT 10SM CLR 19/00 A3010 RMK AO2 SLP189 T01890000
KBRL 231553Z AUTO 04013KT 10SM CLR 16/M01 A3011 RMK AO2 SLP195 T01561006
KBRL 231453Z AUTO 03015KT 10SM CLR 13/M02 A3012 RMK AO2 SLP200 T01281017 58009
KBRL 231353Z AUTO 03013KT 10SM CLR 11/M02 A3014 RMK AO2 SLP206 T01061017
KBRL 231253Z AUTO 04013KT 10SM CLR 09/M02 A3015 RMK AO2 SLP210 T00891017
KBRL 231153Z AUTO 03014KT 10SM CLR 08/M02 A3015 RMK AO2 SLP209 T00831017 10111 20078 53006
KBRL 231053Z AUTO 04011KT 10SM CLR 08/M02 A3014 RMK AO2 SLP206 T00781017
KBRL 230953Z AUTO 05012KT 10SM CLR 10/M03 A3012 RMK AO2 SLP201 T01001028
KBRL 230853Z AUTO 06010KT 10SM CLR 10/M02 A3013 RMK AO2 SLP202 T01001022 56007
KBRL 230753Z AUTO 05010KT 10SM CLR 10/M02 A3013 RMK AO2 SLP202 T01001022
KBRL 230653Z AUTO 05012KT 10SM CLR 10/M02 A3014 RMK AO2 SLP207 T01001022
KBRL 230553Z AUTO 05012KT 10SM CLR 11/M02 A3015 RMK AO2 SLP209 T01111022 10167 20111 402170083 58002
KBRL 230453Z AUTO 04010KT 10SM CLR 13/M02 A3016 RMK AO2 SLP211 T01281017
KBRL 230353Z AUTO 05011KT 10SM CLR 13/M02 A3016 RMK AO2 SLP213 T01331022
KBRL 230253Z AUTO 05012KT 10SM CLR 15/M02 A3016 RMK AO2 SLP212 T01501022 53004
KBRL 230153Z AUTO 05011KT 10SM CLR 16/M03 A3015 RMK AO2 SLP208 T01611028
KBRL 230053Z AUTO 05008KT 10SM CLR 16/M04 A3014 RMK AO2 SLP206 T01611044
KBRL 222353Z AUTO 06011KT 10SM BKN120 17/M06 A3014 RMK AO2 SLP208 T01671061 10217 20167 50000
KBRL 222253Z AUTO 07012KT 10SM SCT100 BKN120 17/M07 A3015 RMK AO2 SLP209 T01721067
KBRL 222153Z AUTO 08013G23KT 10SM OVC095 18/M06 A3014 RMK AO2 SLP207 T01781061
KBRL 222053Z AUTO 06014G19KT 10SM OVC085 19/M03 A3014 RMK AO2 SLP207 T01891033 56014
KBRL 221953Z AUTO 09013KT 10SM OVC110 21/M01 A3015 RMK AO2 SLP210 T02061011
KBRL 221853Z AUTO 08011G20KT 10SM CLR 21/M01 A3017 RMK AO2 WSHFT 1826 SLP216 T02111006
KBRL 221846Z AUTO 08014G20KT 10SM CLR 21/M01 A3017 RMK AO2 WSHFT 1826 T02111006
KBRL 221753Z AUTO 07012KT 10SM CLR 20/00 A3018 RMK AO2 SLP221 T02000000 10200 20083 58018
KBRL 221653Z AUTO 06012KT 10SM CLR 17/M01 A3021 RMK AO2 SLP231 T01671011
KBRL 221553Z AUTO 07013KT 10SM CLR 14/M01 A3023 RMK AO2 SLP237 T01441011
KBRL 221453Z AUTO 08011KT 10SM CLR 12/M01 A3024 RMK AO2 SLP240 T01221011 56006
KBRL 221353Z AUTO 07010KT 10SM CLR 10/M02 A3025 RMK AO2 SLP243 T01001017
KBRL 221253Z AUTO 06013KT 10SM CLR 09/M02 A3024 RMK AO2 SLP241 T00891022
KBRL 221153Z AUTO 07010KT 10SM OVC120 08/M02 A3026 RMK AO2 SLP246 T00831022 10100 20083 53006
KBRL 221053Z AUTO 07010KT 10SM OVC120 08/M02 A3024 RMK AO2 SLP241 T00831022
KBRL 220953Z AUTO 07009KT 10SM CLR 09/M02 A3024 RMK AO2 SLP239 T00891022
KBRL 220853Z AUTO 06010KT 10SM CLR 09/M02 A3024 RMK AO2 SLP240 T00891017 56006
KBRL 220753Z AUTO 06008KT 10SM CLR 09/M02 A3025 RMK AO2 SLP243 T00941017